VIDP/DEL METAR and TAF weather

Enter ICAO airport designator
Station Type Date Time Source
VIDP METAR 2021/10/22 19:30 UTC NOAA

VIDP 221930Z 00000KT 3000 BR NSC 22/20 Q1012 NOSIG


Station Type Date Time Source
VIDP Decoded METAR 2021/10/22 19:30 UTC NOAA

New Delhi / Palam, India (VIDP) 28-34N 077-07E 233M
Oct 22, 2021 - 03:30 PM EDT / 2021.10.22 1930 UTC
Wind: Calm:0
Visibility: 1 mile(s):0
Weather: mist
Temperature: 71 F (22 C)
Dew Point: 68 F (20 C)
Relative Humidity: 88%
Pressure (altimeter): 29.88 in. Hg (1012 hPa)
ob: VIDP 221930Z 00000KT 3000 BR NSC 22/20 Q1012 NOSIG
cycle: 19

Station Type Date Time Source
VIDP TAF 2021/10/22 18:09 UTC NOAA

TAF VIDP 221700Z 2218/2324 00000KT 3500 HZ NSC
BECMG 2301/2303 18003KT 2000 BR
BECMG 2304/2306 3000 HZ FEW100
BECMG 2308/2310 18008KT 5000 HZ SCT100
BECMG 2318/2320 11005KT 3000 HZ -RA SCT035 BKN090

Example: see airport list